x

St. Augustine, Fl (sauf1) Weather Station

9:00pm - Fri 25th May 2018 All times are EDT. -4 hours from GMT.

  • Wind
    18mph, 20mph gusts
  • Sea Temp 81°f
  • Air Temp 78°f
  • Sea Pressure 1015.4mb
  • St. Augustine, Fl
  • St. Augustine, Fl

More Historic Weather Station data

Upgrade to MSW Pro to gain access to the past 30 days of data for over 8000 Wavebouys and Weather Stations around the globe.

Join

Comparision Forecast

View Surf forecast
   
Fri 05/25 9:00pm 18 20 mph 1015.4mb 81f 78f
8:00pm 21 23 mph 1015.4mb 82f 78f
7:00pm 20 22 mph 1015.4mb 82f 78f
6:00pm 17 20 mph 1015.6mb 82f 78f
5:00pm 15 17 mph 1015.6mb 81f 78f
4:00pm 14 15 mph 1016.2mb 80f 78f
3:00pm 15 17 mph 1016.8mb 79f 77f
2:00pm 13 14 mph 1017.5mb 78f 78f
1:00pm 10 13 mph 1018.1mb 78f 77f
12:00pm 9 9 mph 1018.6mb 78f 77f
11:00am 8 8 mph 1018.8mb 78f 77f
10:00am 8 8 mph 1018.9mb 78f 77f
9:00am 2 2 mph 1018.6mb 78f 77f
8:00am 2 2 mph 1018.2mb 78f 77f
7:00am 5 5 mph 1017.6mb 78f 76f
6:00am 6 7 mph 1017.3mb 79f 75f
5:00am 7 8 mph 1016.8mb 79f 76f
4:00am 8 8 mph 1016.7mb 79f 76f
3:00am 5 6 mph 1017.5mb 80f 76f
2:00am 8 9 mph 1018mb 80f 77f
1:00am 13 14 mph 1018.5mb 80f 77f
12:00am 10 11 mph 1019mb 80f 78f
Thu 05/24 11:00pm 13 14 mph 1019.1mb 80f 78f
10:00pm 11 13 mph 1019mb 80f 78f
9:00pm 11 14 mph 1018.6mb 80f 78f
8:00pm 14 15 mph 1018.1mb 80f 78f
7:00pm 16 17 mph 1017.5mb 81f 78f
6:00pm 15 16 mph 1017.7mb 81f 78f
5:00pm 13 14 mph 1017.7mb 81f 78f
4:00pm 14 15 mph 1017.9mb 81f 78f
3:00pm 14 16 mph 1018.4mb 81f 77f
2:00pm 14 15 mph 1019mb 80f 77f
1:00pm 14 14 mph 1019.6mb 79f 77f
12:00pm 11 13 mph 1019.9mb 78f 77f
11:00am 10 10 mph 1019.9mb 78f 77f
10:00am 9 10 mph 1019.9mb 77f 76f
9:00am 9 9 mph 1019.9mb 76f 75f
8:00am 7 8 mph 1019.7mb 76f 75f
7:00am 5 6 mph 1019.3mb 76f 74f
6:00am 7 8 mph 1018.8mb 77f 74f
5:00am 6 7 mph 1018.6mb 77f 74f
4:00am 3 5 mph 1018.5mb 77f 73f
3:00am 3 5 mph 1018.4mb 78f 74f
2:00am 6 7 mph 1018.7mb 78f 74f
1:00am 10 11 mph 1018.6mb 78f 76f
12:00am 15 17 mph 1019mb 79f 77f
Wed 05/23 11:00pm 14 15 mph 1019.3mb 79f 77f
10:00pm 15 17 mph 1019.1mb 80f 78f
9:00pm 15 16 mph 1018.8mb 80f 78f
8:00pm 18 20 mph 1018.6mb 81f 78f
7:00pm 18 20 mph 1018.1mb 81f 78f
6:00pm 15 16 mph 1018.3mb 81f 78f
5:00pm 14 16 mph 1018.2mb 81f 78f
4:00pm 15 15 mph 1018.5mb 81f 78f
3:00pm 14 15 mph 1019.2mb 80f 77f
2:00pm 11 13 mph 1019.7mb 79f 77f
1:00pm 11 13 mph 1020.4mb 79f 77f
12:00pm 11 11 mph 1020.9mb 78f 77f
11:00am 10 11 mph 1020.9mb 77f 76f
10:00am 9 10 mph 1020.8mb 77f 76f
9:00am 6 7 mph 1020.7mb 76f 75f
8:00am 5 6 mph 1020.3mb 75f 74f
7:00am 5 5 mph 1019.8mb 75f 75f
6:00am 5 5 mph 1019.2mb 76f 73f
5:00am 5 6 mph 1018.9mb 76f 72f
4:00am 5 6 mph 1018.9mb 76f 72f
3:00am 5 6 mph 1019.1mb 76f 73f
2:00am 5 6 mph 1019.4mb 76f 74f
1:00am 8 9 mph 1019.2mb 76f 75f
12:00am 7 7 mph 1019.6mb 76f 75f
Tue 05/22 11:00pm 6 7 mph 1019.6mb 77f 75f
10:00pm 5 6 mph 1019.5mb 77f 76f
9:00pm 5 6 mph 1019.2mb 77f 76f
8:00pm 9 10 mph 1018.7mb 77f 76f
7:00pm 16 18 mph 1018.3mb 78f 77f
6:00pm 18 20 mph 1018.2mb 78f 77f
5:00pm 8 9 mph 1018.7mb 78f 76f
4:00pm 11 11 mph 1018.9mb 78f 77f
3:00pm 8 9 mph 1019.3mb 78f 77f
2:00pm 17 18 mph 1019.8mb 78f 77f
1:00pm 13 14 mph 1020.1mb 78f 77f
12:00pm 13 13 mph 1020.6mb 77f 76f
11:00am 11 13 mph 1020.8mb 77f 77f
10:00am 9 10 mph 1020.7mb 76f 76f
9:00am 13 14 mph 1020.1mb 76f 76f
8:00am 10 11 mph 1019.5mb 76f 76f
7:00am 16 16 mph 1019.1mb 76f 76f
6:00am 8 9 mph 1018.7mb 76f 76f
5:00am 10 11 mph 1018.4mb 76f 76f
4:00am 11 14 mph 1018.2mb 76f 76f
3:00am 13 16 mph 1018.3mb 76f 76f